Mengxian, China
Current Conditions -  °F | °C
As of 5:00 PM on Wednesday 28 Jan 2015 (Local Time) from ZHCC Reporting Station
Light Snow Light Snow  
Wind Chill: 15°   Ceiling: 2000
Heat Index: 25°   Visibility: 0.62mi
Dew Point: 23°   Wind: 9mph
Humidity: 93%   Direction: 10°N
Pressure: 30.45"   Gusts: NA
Location:  34.9°N, 112.78°E
Report Text: ZHCC 280900Z 01004MPS 1000 R30/1200V1400N -SN BROVC020M04/M05 Q1031 NOSIG
Loading
Personal Weather Stations






























Interactive Weather Map New forecast layout! Learn more

10-Day Weather Forecast

Advertisements
Track Severe Weather on mobile